sensor_id;sensor_type;location;lat;lon;timestamp;P1;P2;P0
73241;PMS5003;65659;49.234;-2.094;2023-07-22T00:01:15;1;1;
73241;PMS5003;65659;49.234;-2.094;2023-07-22T00:03:41;1;1;
73241;PMS5003;65659;49.234;-2.094;2023-07-22T00:06:09;2;2;
73241;PMS5003;65659;49.234;-2.094;2023-07-22T00:08:33;1;1;
73241;PMS5003;65659;49.234;-2.094;2023-07-22T00:10:58;1;1;
73241;PMS5003;65659;49.234;-2.094;2023-07-22T00:13:24;3;3;
73241;PMS5003;65659;49.234;-2.094;2023-07-22T00:15:50;2;1;
73241;PMS5003;65659;49.234;-2.094;2023-07-22T00:18:16;3;3;
73241;PMS5003;65659;49.234;-2.094;2023-07-22T00:20:42;2;2;
73241;PMS5003;65659;49.234;-2.094;2023-07-22T00:23:07;0;0;
73241;PMS5003;65659;49.234;-2.094;2023-07-22T00:25:33;2;1;
73241;PMS5003;65659;49.234;-2.094;2023-07-22T00:27:59;2;1;
73241;PMS5003;65659;49.234;-2.094;2023-07-22T00:30:25;1;1;
73241;PMS5003;65659;49.234;-2.094;2023-07-22T00:32:51;1;1;
73241;PMS5003;65659;49.234;-2.094;2023-07-22T00:35:16;1;1;
73241;PMS5003;65659;49.234;-2.094;2023-07-22T00:37:42;1;1;
73241;PMS5003;65659;49.234;-2.094;2023-07-22T00:40:08;3;3;
73241;PMS5003;65659;49.234;-2.094;2023-07-22T00:42:34;2;2;
73241;PMS5003;65659;49.234;-2.094;2023-07-22T00:45:00;1;1;
73241;PMS5003;65659;49.234;-2.094;2023-07-22T00:47:25;2;2;
73241;PMS5003;65659;49.234;-2.094;2023-07-22T00:49:51;1;1;
73241;PMS5003;65659;49.234;-2.094;2023-07-22T00:52:17;1;1;
73241;PMS5003;65659;49.234;-2.094;2023-07-22T00:54:43;1;1;
73241;PMS5003;65659;49.234;-2.094;2023-07-22T00:57:09;2;2;
73241;PMS5003;65659;49.234;-2.094;2023-07-22T00:59:34;1;0;
73241;PMS5003;65659;49.234;-2.094;2023-07-22T01:02:00;3;3;
73241;PMS5003;65659;49.234;-2.094;2023-07-22T01:04:25;0;0;
73241;PMS5003;65659;49.234;-2.094;2023-07-22T01:06:51;0;0;
73241;PMS5003;65659;49.234;-2.094;2023-07-22T01:09:17;1;1;
73241;PMS5003;65659;49.234;-2.094;2023-07-22T01:11:43;1;1;
73241;PMS5003;65659;49.234;-2.094;2023-07-22T01:14:09;1;1;
73241;PMS5003;65659;49.234;-2.094;2023-07-22T01:16:34;1;1;
73241;PMS5003;65659;49.234;-2.094;2023-07-22T01:19:00;1;1;
73241;PMS5003;65659;49.234;-2.094;2023-07-22T01:21:26;2;2;
73241;PMS5003;65659;49.234;-2.094;2023-07-22T01:23:51;3;2;
73241;PMS5003;65659;49.234;-2.094;2023-07-22T01:26:17;2;2;
73241;PMS5003;65659;49.234;-2.094;2023-07-22T01:28:43;3;3;
73241;PMS5003;65659;49.234;-2.094;2023-07-22T01:31:08;1;1;
73241;PMS5003;65659;49.234;-2.094;2023-07-22T01:33:34;2;2;
73241;PMS5003;65659;49.234;-2.094;2023-07-22T01:36:00;2;2;
73241;PMS5003;65659;49.234;-2.094;2023-07-22T01:38:26;3;3;
73241;PMS5003;65659;49.234;-2.094;2023-07-22T01:40:51;1;1;
73241;PMS5003;65659;49.234;-2.094;2023-07-22T01:43:17;2;2;
73241;PMS5003;65659;49.234;-2.094;2023-07-22T01:45:43;1;1;
73241;PMS5003;65659;49.234;-2.094;2023-07-22T01:48:09;2;2;
73241;PMS5003;65659;49.234;-2.094;2023-07-22T01:50:35;1;1;
73241;PMS5003;65659;49.234;-2.094;2023-07-22T01:53:00;0;0;
73241;PMS5003;65659;49.234;-2.094;2023-07-22T01:55:26;1;1;
73241;PMS5003;65659;49.234;-2.094;2023-07-22T01:57:53;1;1;
73241;PMS5003;65659;49.234;-2.094;2023-07-22T02:00:18;2;2;
73241;PMS5003;65659;49.234;-2.094;2023-07-22T02:02:44;0;0;
73241;PMS5003;65659;49.234;-2.094;2023-07-22T02:05:10;2;2;
73241;PMS5003;65659;49.234;-2.094;2023-07-22T02:07:35;0;0;
73241;PMS5003;65659;49.234;-2.094;2023-07-22T02:10:01;5;5;
73241;PMS5003;65659;49.234;-2.094;2023-07-22T02:12:26;1;1;
73241;PMS5003;65659;49.234;-2.094;2023-07-22T02:14:52;0;0;
73241;PMS5003;65659;49.234;-2.094;2023-07-22T02:17:18;1;1;
73241;PMS5003;65659;49.234;-2.094;2023-07-22T02:19:44;1;1;
73241;PMS5003;65659;49.234;-2.094;2023-07-22T02:22:10;1;1;
73241;PMS5003;65659;49.234;-2.094;2023-07-22T02:24:35;2;2;
73241;PMS5003;65659;49.234;-2.094;2023-07-22T02:27:01;2;2;
73241;PMS5003;65659;49.234;-2.094;2023-07-22T02:29:27;1;1;
73241;PMS5003;65659;49.234;-2.094;2023-07-22T02:31:53;2;2;
73241;PMS5003;65659;49.234;-2.094;2023-07-22T02:34:19;3;2;
73241;PMS5003;65659;49.234;-2.094;2023-07-22T02:36:44;1;1;
73241;PMS5003;65659;49.234;-2.094;2023-07-22T02:39:10;3;3;
73241;PMS5003;65659;49.234;-2.094;2023-07-22T02:41:36;2;2;
73241;PMS5003;65659;49.234;-2.094;2023-07-22T02:44:02;3;3;
73241;PMS5003;65659;49.234;-2.094;2023-07-22T02:46:27;3;3;
73241;PMS5003;65659;49.234;-2.094;2023-07-22T02:48:53;2;2;
73241;PMS5003;65659;49.234;-2.094;2023-07-22T02:51:19;2;2;
73241;PMS5003;65659;49.234;-2.094;2023-07-22T02:53:45;1;1;
73241;PMS5003;65659;49.234;-2.094;2023-07-22T02:56:11;3;3;
73241;PMS5003;65659;49.234;-2.094;2023-07-22T02:58:37;3;3;
73241;PMS5003;65659;49.234;-2.094;2023-07-22T03:01:03;3;2;
73241;PMS5003;65659;49.234;-2.094;2023-07-22T03:03:28;1;1;
73241;PMS5003;65659;49.234;-2.094;2023-07-22T03:05:54;2;2;
73241;PMS5003;65659;49.234;-2.094;2023-07-22T03:08:19;2;2;
73241;PMS5003;65659;49.234;-2.094;2023-07-22T03:10:45;2;2;
73241;PMS5003;65659;49.234;-2.094;2023-07-22T03:13:11;0;0;
73241;PMS5003;65659;49.234;-2.094;2023-07-22T03:15:37;2;2;
73241;PMS5003;65659;49.234;-2.094;2023-07-22T03:18:03;1;1;
73241;PMS5003;65659;49.234;-2.094;2023-07-22T03:20:28;2;2;
73241;PMS5003;65659;49.234;-2.094;2023-07-22T03:22:54;2;2;
73241;PMS5003;65659;49.234;-2.094;2023-07-22T03:25:20;1;1;
73241;PMS5003;65659;49.234;-2.094;2023-07-22T03:27:46;3;3;
73241;PMS5003;65659;49.234;-2.094;2023-07-22T03:30:12;3;2;
73241;PMS5003;65659;49.234;-2.094;2023-07-22T03:32:37;2;2;
73241;PMS5003;65659;49.234;-2.094;2023-07-22T03:35:03;4;3;
73241;PMS5003;65659;49.234;-2.094;2023-07-22T03:37:29;2;2;
73241;PMS5003;65659;49.234;-2.094;2023-07-22T03:39:55;2;2;
73241;PMS5003;65659;49.234;-2.094;2023-07-22T03:42:20;2;2;
73241;PMS5003;65659;49.234;-2.094;2023-07-22T03:44:46;3;3;
73241;PMS5003;65659;49.234;-2.094;2023-07-22T03:47:12;1;1;
73241;PMS5003;65659;49.234;-2.094;2023-07-22T03:49:38;2;2;
73241;PMS5003;65659;49.234;-2.094;2023-07-22T03:52:04;3;3;
73241;PMS5003;65659;49.234;-2.094;2023-07-22T03:54:29;3;3;
73241;PMS5003;65659;49.234;-2.094;2023-07-22T03:56:55;1;1;
73241;PMS5003;65659;49.234;-2.094;2023-07-22T03:59:21;2;2;
73241;PMS5003;65659;49.234;-2.094;2023-07-22T04:01:47;3;3;
73241;PMS5003;65659;49.234;-2.094;2023-07-22T04:04:12;3;3;
73241;PMS5003;65659;49.234;-2.094;2023-07-22T04:06:38;3;3;
73241;PMS5003;65659;49.234;-2.094;2023-07-22T04:09:04;2;2;
73241;PMS5003;65659;49.234;-2.094;2023-07-22T04:11:30;3;3;
73241;PMS5003;65659;49.234;-2.094;2023-07-22T04:13:55;1;1;
73241;PMS5003;65659;49.234;-2.094;2023-07-22T04:16:21;3;3;
73241;PMS5003;65659;49.234;-2.094;2023-07-22T04:18:47;3;3;
73241;PMS5003;65659;49.234;-2.094;2023-07-22T04:21:13;2;2;
73241;PMS5003;65659;49.234;-2.094;2023-07-22T04:23:38;3;3;
73241;PMS5003;65659;49.234;-2.094;2023-07-22T04:26:04;2;2;
73241;PMS5003;65659;49.234;-2.094;2023-07-22T04:28:29;3;3;
73241;PMS5003;65659;49.234;-2.094;2023-07-22T04:30:56;2;2;
73241;PMS5003;65659;49.234;-2.094;2023-07-22T04:33:20;7;7;
73241;PMS5003;65659;49.234;-2.094;2023-07-22T04:35:46;3;3;
73241;PMS5003;65659;49.234;-2.094;2023-07-22T04:38:12;3;3;
73241;PMS5003;65659;49.234;-2.094;2023-07-22T04:40:38;3;3;
73241;PMS5003;65659;49.234;-2.094;2023-07-22T04:43:04;5;4;
73241;PMS5003;65659;49.234;-2.094;2023-07-22T04:45:29;3;3;
73241;PMS5003;65659;49.234;-2.094;2023-07-22T04:47:55;4;4;
73241;PMS5003;65659;49.234;-2.094;2023-07-22T04:50:21;1;1;
73241;PMS5003;65659;49.234;-2.094;2023-07-22T04:52:46;3;3;
73241;PMS5003;65659;49.234;-2.094;2023-07-22T04:55:12;2;2;
73241;PMS5003;65659;49.234;-2.094;2023-07-22T04:57:38;3;2;
73241;PMS5003;65659;49.234;-2.094;2023-07-22T05:00:05;2;2;
73241;PMS5003;65659;49.234;-2.094;2023-07-22T05:02:29;2;2;
73241;PMS5003;65659;49.234;-2.094;2023-07-22T05:04:55;3;3;
73241;PMS5003;65659;49.234;-2.094;2023-07-22T05:07:21;5;4;
73241;PMS5003;65659;49.234;-2.094;2023-07-22T05:09:46;2;2;
73241;PMS5003;65659;49.234;-2.094;2023-07-22T05:12:12;3;3;
73241;PMS5003;65659;49.234;-2.094;2023-07-22T05:14:38;5;4;
73241;PMS5003;65659;49.234;-2.094;2023-07-22T05:17:04;3;2;
73241;PMS5003;65659;49.234;-2.094;2023-07-22T05:19:29;3;3;
73241;PMS5003;65659;49.234;-2.094;2023-07-22T05:21:55;5;4;
73241;PMS5003;65659;49.234;-2.094;2023-07-22T05:24:21;4;4;
73241;PMS5003;65659;49.234;-2.094;2023-07-22T05:26:47;3;3;
73241;PMS5003;65659;49.234;-2.094;2023-07-22T05:29:12;3;3;
73241;PMS5003;65659;49.234;-2.094;2023-07-22T05:31:38;5;5;
73241;PMS5003;65659;49.234;-2.094;2023-07-22T05:34:04;2;2;
73241;PMS5003;65659;49.234;-2.094;2023-07-22T05:36:30;5;5;
73241;PMS5003;65659;49.234;-2.094;2023-07-22T05:38:55;4;4;
73241;PMS5003;65659;49.234;-2.094;2023-07-22T05:41:21;4;4;
73241;PMS5003;65659;49.234;-2.094;2023-07-22T05:43:47;3;3;
73241;PMS5003;65659;49.234;-2.094;2023-07-22T05:46:13;6;5;
73241;PMS5003;65659;49.234;-2.094;2023-07-22T05:48:38;4;4;
73241;PMS5003;65659;49.234;-2.094;2023-07-22T05:51:04;5;5;
73241;PMS5003;65659;49.234;-2.094;2023-07-22T05:53:30;4;4;
73241;PMS5003;65659;49.234;-2.094;2023-07-22T05:55:56;4;4;
73241;PMS5003;65659;49.234;-2.094;2023-07-22T05:58:22;4;4;
73241;PMS5003;65659;49.234;-2.094;2023-07-22T06:00:47;4;4;
73241;PMS5003;65659;49.234;-2.094;2023-07-22T06:03:13;3;3;
73241;PMS5003;65659;49.234;-2.094;2023-07-22T06:05:39;5;4;
73241;PMS5003;65659;49.234;-2.094;2023-07-22T06:08:04;4;4;
73241;PMS5003;65659;49.234;-2.094;2023-07-22T06:10:31;2;2;
73241;PMS5003;65659;49.234;-2.094;2023-07-22T06:12:56;3;3;
73241;PMS5003;65659;49.234;-2.094;2023-07-22T06:15:21;2;2;
73241;PMS5003;65659;49.234;-2.094;2023-07-22T06:17:47;3;3;
73241;PMS5003;65659;49.234;-2.094;2023-07-22T06:20:13;3;2;
73241;PMS5003;65659;49.234;-2.094;2023-07-22T06:22:38;4;4;
73241;PMS5003;65659;49.234;-2.094;2023-07-22T06:25:05;4;4;
73241;PMS5003;65659;49.234;-2.094;2023-07-22T06:27:30;3;3;
73241;PMS5003;65659;49.234;-2.094;2023-07-22T06:29:56;4;4;
73241;PMS5003;65659;49.234;-2.094;2023-07-22T06:32:21;5;5;
73241;PMS5003;65659;49.234;-2.094;2023-07-22T06:34:47;3;3;
73241;PMS5003;65659;49.234;-2.094;2023-07-22T06:37:13;4;3;
73241;PMS5003;65659;49.234;-2.094;2023-07-22T06:39:39;4;4;
73241;PMS5003;65659;49.234;-2.094;2023-07-22T06:42:05;3;3;
73241;PMS5003;65659;49.234;-2.094;2023-07-22T06:44:30;3;3;
73241;PMS5003;65659;49.234;-2.094;2023-07-22T06:46:56;5;5;
73241;PMS5003;65659;49.234;-2.094;2023-07-22T06:49:22;4;4;
73241;PMS5003;65659;49.234;-2.094;2023-07-22T06:51:48;5;5;
73241;PMS5003;65659;49.234;-2.094;2023-07-22T06:54:13;4;4;
73241;PMS5003;65659;49.234;-2.094;2023-07-22T06:56:39;3;3;
73241;PMS5003;65659;49.234;-2.094;2023-07-22T06:59:05;5;4;
73241;PMS5003;65659;49.234;-2.094;2023-07-22T07:01:31;3;3;
73241;PMS5003;65659;49.234;-2.094;2023-07-22T07:03:56;8;7;
73241;PMS5003;65659;49.234;-2.094;2023-07-22T07:06:22;3;3;
73241;PMS5003;65659;49.234;-2.094;2023-07-22T07:08:48;3;3;
73241;PMS5003;65659;49.234;-2.094;2023-07-22T07:11:14;5;5;
73241;PMS5003;65659;49.234;-2.094;2023-07-22T07:13:40;4;4;
73241;PMS5003;65659;49.234;-2.094;2023-07-22T07:18:31;4;4;
73241;PMS5003;65659;49.234;-2.094;2023-07-22T07:20:56;6;4;
73241;PMS5003;65659;49.234;-2.094;2023-07-22T07:23:22;5;5;
73241;PMS5003;65659;49.234;-2.094;2023-07-22T07:25:48;4;4;
73241;PMS5003;65659;49.234;-2.094;2023-07-22T07:28:14;3;3;
73241;PMS5003;65659;49.234;-2.094;2023-07-22T07:30:40;3;3;
73241;PMS5003;65659;49.234;-2.094;2023-07-22T07:33:10;4;4;
73241;PMS5003;65659;49.234;-2.094;2023-07-22T07:35:31;7;7;
73241;PMS5003;65659;49.234;-2.094;2023-07-22T07:37:57;4;4;
73241;PMS5003;65659;49.234;-2.094;2023-07-22T07:40:22;4;4;
73241;PMS5003;65659;49.234;-2.094;2023-07-22T07:42:48;3;3;
73241;PMS5003;65659;49.234;-2.094;2023-07-22T07:45:14;5;4;
73241;PMS5003;65659;49.234;-2.094;2023-07-22T07:47:40;4;4;
73241;PMS5003;65659;49.234;-2.094;2023-07-22T07:50:06;5;4;
73241;PMS5003;65659;49.234;-2.094;2023-07-22T07:52:31;5;5;
73241;PMS5003;65659;49.234;-2.094;2023-07-22T07:54:56;5;4;
73241;PMS5003;65659;49.234;-2.094;2023-07-22T07:57:22;5;5;
73241;PMS5003;65659;49.234;-2.094;2023-07-22T07:59:48;6;5;
73241;PMS5003;65659;49.234;-2.094;2023-07-22T08:02:13;5;4;
73241;PMS5003;65659;49.234;-2.094;2023-07-22T08:04:39;6;6;
73241;PMS5003;65659;49.234;-2.094;2023-07-22T08:07:05;8;7;
73241;PMS5003;65659;49.234;-2.094;2023-07-22T08:09:30;6;6;
73241;PMS5003;65659;49.234;-2.094;2023-07-22T08:11:56;8;7;
73241;PMS5003;65659;49.234;-2.094;2023-07-22T08:14:22;7;7;
73241;PMS5003;65659;49.234;-2.094;2023-07-22T08:16:47;7;6;
73241;PMS5003;65659;49.234;-2.094;2023-07-22T08:19:13;5;5;
73241;PMS5003;65659;49.234;-2.094;2023-07-22T08:21:39;7;6;
73241;PMS5003;65659;49.234;-2.094;2023-07-22T08:24:05;6;6;
73241;PMS5003;65659;49.234;-2.094;2023-07-22T08:26:30;7;6;
73241;PMS5003;65659;49.234;-2.094;2023-07-22T08:28:56;5;5;
73241;PMS5003;65659;49.234;-2.094;2023-07-22T08:31:22;6;6;
73241;PMS5003;65659;49.234;-2.094;2023-07-22T08:33:48;8;8;
73241;PMS5003;65659;49.234;-2.094;2023-07-22T08:36:13;8;8;
73241;PMS5003;65659;49.234;-2.094;2023-07-22T08:38:39;8;7;
73241;PMS5003;65659;49.234;-2.094;2023-07-22T08:41:05;6;6;
73241;PMS5003;65659;49.234;-2.094;2023-07-22T08:43:30;7;7;
73241;PMS5003;65659;49.234;-2.094;2023-07-22T08:45:58;7;7;
73241;PMS5003;65659;49.234;-2.094;2023-07-22T08:48:26;9;9;
73241;PMS5003;65659;49.234;-2.094;2023-07-22T08:50:49;6;6;
73241;PMS5003;65659;49.234;-2.094;2023-07-22T08:53:13;7;7;
73241;PMS5003;65659;49.234;-2.094;2023-07-22T08:55:38;5;5;
73241;PMS5003;65659;49.234;-2.094;2023-07-22T08:58:04;8;8;
73241;PMS5003;65659;49.234;-2.094;2023-07-22T09:00:35;8;8;
73241;PMS5003;65659;49.234;-2.094;2023-07-22T09:02:55;8;7;
73241;PMS5003;65659;49.234;-2.094;2023-07-22T09:05:21;8;8;
73241;PMS5003;65659;49.234;-2.094;2023-07-22T09:07:46;9;8;
73241;PMS5003;65659;49.234;-2.094;2023-07-22T09:10:13;8;8;
73241;PMS5003;65659;49.234;-2.094;2023-07-22T09:12:42;9;9;
73241;PMS5003;65659;49.234;-2.094;2023-07-22T09:15:05;10;9;
73241;PMS5003;65659;49.234;-2.094;2023-07-22T09:17:29;7;7;
73241;PMS5003;65659;49.234;-2.094;2023-07-22T09:19:54;10;9;
73241;PMS5003;65659;49.234;-2.094;2023-07-22T09:22:24;9;9;
73241;PMS5003;65659;49.234;-2.094;2023-07-22T09:24:46;7;7;
73241;PMS5003;65659;49.234;-2.094;2023-07-22T09:27:11;11;10;
73241;PMS5003;65659;49.234;-2.094;2023-07-22T09:29:38;8;8;
73241;PMS5003;65659;49.234;-2.094;2023-07-22T09:32:03;9;8;
73241;PMS5003;65659;49.234;-2.094;2023-07-22T09:34:29;13;12;
73241;PMS5003;65659;49.234;-2.094;2023-07-22T09:36:55;8;8;
73241;PMS5003;65659;49.234;-2.094;2023-07-22T09:39:20;6;6;
73241;PMS5003;65659;49.234;-2.094;2023-07-22T09:41:45;7;7;
73241;PMS5003;65659;49.234;-2.094;2023-07-22T09:44:11;11;10;
73241;PMS5003;65659;49.234;-2.094;2023-07-22T09:46:37;7;7;
73241;PMS5003;65659;49.234;-2.094;2023-07-22T09:49:02;5;5;
73241;PMS5003;65659;49.234;-2.094;2023-07-22T09:51:32;9;7;
73241;PMS5003;65659;49.234;-2.094;2023-07-22T09:56:18;8;8;
73241;PMS5003;65659;49.234;-2.094;2023-07-22T09:58:45;7;6;
73241;PMS5003;65659;49.234;-2.094;2023-07-22T10:01:10;8;8;
73241;PMS5003;65659;49.234;-2.094;2023-07-22T10:03:36;6;6;
73241;PMS5003;65659;49.234;-2.094;2023-07-22T10:06:01;4;4;
73241;PMS5003;65659;49.234;-2.094;2023-07-22T10:08:27;5;5;
73241;PMS5003;65659;49.234;-2.094;2023-07-22T10:10:53;8;7;
73241;PMS5003;65659;49.234;-2.094;2023-07-22T10:13:19;6;6;
73241;PMS5003;65659;49.234;-2.094;2023-07-22T10:15:44;8;8;
73241;PMS5003;65659;49.234;-2.094;2023-07-22T10:18:10;8;7;
73241;PMS5003;65659;49.234;-2.094;2023-07-22T10:20:36;7;7;
73241;PMS5003;65659;49.234;-2.094;2023-07-22T10:23:01;6;6;
73241;PMS5003;65659;49.234;-2.094;2023-07-22T10:25:27;6;6;
73241;PMS5003;65659;49.234;-2.094;2023-07-22T10:27:53;5;5;
73241;PMS5003;65659;49.234;-2.094;2023-07-22T10:30:18;7;6;
73241;PMS5003;65659;49.234;-2.094;2023-07-22T10:32:45;5;5;
73241;PMS5003;65659;49.234;-2.094;2023-07-22T10:35:09;6;6;
73241;PMS5003;65659;49.234;-2.094;2023-07-22T10:37:35;8;8;
73241;PMS5003;65659;49.234;-2.094;2023-07-22T10:40:01;9;8;
73241;PMS5003;65659;49.234;-2.094;2023-07-22T10:42:26;7;7;
73241;PMS5003;65659;49.234;-2.094;2023-07-22T10:44:51;10;10;
73241;PMS5003;65659;49.234;-2.094;2023-07-22T10:49:43;8;8;
73241;PMS5003;65659;49.234;-2.094;2023-07-22T10:52:09;7;7;
73241;PMS5003;65659;49.234;-2.094;2023-07-22T10:54:33;6;6;
73241;PMS5003;65659;49.234;-2.094;2023-07-22T10:57:02;9;9;
73241;PMS5003;65659;49.234;-2.094;2023-07-22T10:59:26;8;8;
73241;PMS5003;65659;49.234;-2.094;2023-07-22T11:01:50;7;7;
73241;PMS5003;65659;49.234;-2.094;2023-07-22T11:04:22;7;7;
73241;PMS5003;65659;49.234;-2.094;2023-07-22T11:09:06;10;10;
73241;PMS5003;65659;49.234;-2.094;2023-07-22T11:11:35;8;8;
73241;PMS5003;65659;49.234;-2.094;2023-07-22T11:16:24;10;10;
73241;PMS5003;65659;49.234;-2.094;2023-07-22T11:18:49;10;9;
73241;PMS5003;65659;49.234;-2.094;2023-07-22T11:21:15;11;11;
73241;PMS5003;65659;49.234;-2.094;2023-07-22T11:23:40;9;9;
73241;PMS5003;65659;49.234;-2.094;2023-07-22T11:26:06;11;11;
73241;PMS5003;65659;49.234;-2.094;2023-07-22T11:28:31;11;10;
73241;PMS5003;65659;49.234;-2.094;2023-07-22T11:30:58;12;11;
73241;PMS5003;65659;49.234;-2.094;2023-07-22T11:33:23;9;9;
73241;PMS5003;65659;49.234;-2.094;2023-07-22T11:35:48;9;9;
73241;PMS5003;65659;49.234;-2.094;2023-07-22T11:38:13;10;10;
73241;PMS5003;65659;49.234;-2.094;2023-07-22T11:40:39;9;9;
73241;PMS5003;65659;49.234;-2.094;2023-07-22T11:43:04;8;8;
73241;PMS5003;65659;49.234;-2.094;2023-07-22T11:45:30;11;10;
73241;PMS5003;65659;49.234;-2.094;2023-07-22T11:47:55;8;7;
73241;PMS5003;65659;49.234;-2.094;2023-07-22T11:52:49;9;9;
73241;PMS5003;65659;49.234;-2.094;2023-07-22T11:55:12;8;8;
73241;PMS5003;65659;49.234;-2.094;2023-07-22T11:57:38;7;7;
73241;PMS5003;65659;49.234;-2.094;2023-07-22T12:00:04;10;10;
73241;PMS5003;65659;49.234;-2.094;2023-07-22T12:02:28;12;12;
73241;PMS5003;65659;49.234;-2.094;2023-07-22T12:04:55;7;7;
73241;PMS5003;65659;49.234;-2.094;2023-07-22T12:07:21;9;9;
73241;PMS5003;65659;49.234;-2.094;2023-07-22T12:09:47;10;9;
73241;PMS5003;65659;49.234;-2.094;2023-07-22T12:12:11;8;7;
73241;PMS5003;65659;49.234;-2.094;2023-07-22T12:14:36;8;8;
73241;PMS5003;65659;49.234;-2.094;2023-07-22T12:17:02;10;10;
73241;PMS5003;65659;49.234;-2.094;2023-07-22T12:19:28;10;8;
73241;PMS5003;65659;49.234;-2.094;2023-07-22T12:21:53;9;9;
73241;PMS5003;65659;49.234;-2.094;2023-07-22T12:24:18;6;6;
73241;PMS5003;65659;49.234;-2.094;2023-07-22T12:26:44;10;9;
73241;PMS5003;65659;49.234;-2.094;2023-07-22T12:29:10;6;6;
73241;PMS5003;65659;49.234;-2.094;2023-07-22T12:31:35;11;9;
73241;PMS5003;65659;49.234;-2.094;2023-07-22T12:34:01;9;8;
73241;PMS5003;65659;49.234;-2.094;2023-07-22T12:36:26;10;10;
73241;PMS5003;65659;49.234;-2.094;2023-07-22T12:38:52;8;8;
73241;PMS5003;65659;49.234;-2.094;2023-07-22T12:41:17;5;5;
73241;PMS5003;65659;49.234;-2.094;2023-07-22T12:43:43;8;7;
73241;PMS5003;65659;49.234;-2.094;2023-07-22T12:46:08;6;6;
73241;PMS5003;65659;49.234;-2.094;2023-07-22T12:48:34;9;9;
73241;PMS5003;65659;49.234;-2.094;2023-07-22T12:51:00;10;8;
73241;PMS5003;65659;49.234;-2.094;2023-07-22T12:53:26;8;8;
73241;PMS5003;65659;49.234;-2.094;2023-07-22T12:55:51;7;7;
73241;PMS5003;65659;49.234;-2.094;2023-07-22T12:58:16;9;9;
73241;PMS5003;65659;49.234;-2.094;2023-07-22T13:00:42;6;6;
73241;PMS5003;65659;49.234;-2.094;2023-07-22T13:03:07;6;6;
73241;PMS5003;65659;49.234;-2.094;2023-07-22T13:05:33;8;8;
73241;PMS5003;65659;49.234;-2.094;2023-07-22T13:07:59;7;7;
73241;PMS5003;65659;49.234;-2.094;2023-07-22T13:10:24;7;7;
73241;PMS5003;65659;49.234;-2.094;2023-07-22T13:12:50;8;8;
73241;PMS5003;65659;49.234;-2.094;2023-07-22T13:15:15;10;10;
73241;PMS5003;65659;49.234;-2.094;2023-07-22T13:17:41;8;8;
73241;PMS5003;65659;49.234;-2.094;2023-07-22T13:20:07;7;7;
73241;PMS5003;65659;49.234;-2.094;2023-07-22T13:22:32;10;9;
73241;PMS5003;65659;49.234;-2.094;2023-07-22T13:24:57;8;8;
73241;PMS5003;65659;49.234;-2.094;2023-07-22T13:27:23;6;5;
73241;PMS5003;65659;49.234;-2.094;2023-07-22T13:29:48;6;6;
73241;PMS5003;65659;49.234;-2.094;2023-07-22T13:32:14;10;10;
73241;PMS5003;65659;49.234;-2.094;2023-07-22T13:34:39;8;8;
73241;PMS5003;65659;49.234;-2.094;2023-07-22T13:37:04;10;10;
73241;PMS5003;65659;49.234;-2.094;2023-07-22T13:39:30;8;7;
73241;PMS5003;65659;49.234;-2.094;2023-07-22T13:41:55;8;8;
73241;PMS5003;65659;49.234;-2.094;2023-07-22T13:44:21;8;8;
73241;PMS5003;65659;49.234;-2.094;2023-07-22T13:46:46;10;9;
73241;PMS5003;65659;49.234;-2.094;2023-07-22T13:49:12;11;11;
73241;PMS5003;65659;49.234;-2.094;2023-07-22T13:51:38;9;9;
73241;PMS5003;65659;49.234;-2.094;2023-07-22T13:54:03;7;7;
73241;PMS5003;65659;49.234;-2.094;2023-07-22T13:56:29;8;8;
73241;PMS5003;65659;49.234;-2.094;2023-07-22T13:58:54;12;12;
73241;PMS5003;65659;49.234;-2.094;2023-07-22T14:01:20;9;9;
73241;PMS5003;65659;49.234;-2.094;2023-07-22T14:03:45;10;10;
73241;PMS5003;65659;49.234;-2.094;2023-07-22T14:06:11;7;7;
73241;PMS5003;65659;49.234;-2.094;2023-07-22T14:08:36;8;8;
73241;PMS5003;65659;49.234;-2.094;2023-07-22T14:11:02;7;7;
73241;PMS5003;65659;49.234;-2.094;2023-07-22T14:13:28;10;10;
73241;PMS5003;65659;49.234;-2.094;2023-07-22T14:15:53;12;11;
73241;PMS5003;65659;49.234;-2.094;2023-07-22T14:18:19;9;9;
73241;PMS5003;65659;49.234;-2.094;2023-07-22T14:20:45;7;7;
73241;PMS5003;65659;49.234;-2.094;2023-07-22T14:23:10;8;7;
73241;PMS5003;65659;49.234;-2.094;2023-07-22T14:25:35;8;8;
73241;PMS5003;65659;49.234;-2.094;2023-07-22T14:28:01;10;10;
73241;PMS5003;65659;49.234;-2.094;2023-07-22T14:30:26;7;6;
73241;PMS5003;65659;49.234;-2.094;2023-07-22T14:32:52;8;8;
73241;PMS5003;65659;49.234;-2.094;2023-07-22T14:35:17;7;7;
73241;PMS5003;65659;49.234;-2.094;2023-07-22T14:37:43;9;9;
73241;PMS5003;65659;49.234;-2.094;2023-07-22T14:40:09;8;7;
73241;PMS5003;65659;49.234;-2.094;2023-07-22T14:42:34;8;8;
73241;PMS5003;65659;49.234;-2.094;2023-07-22T14:45:00;9;9;
73241;PMS5003;65659;49.234;-2.094;2023-07-22T14:47:25;8;8;
73241;PMS5003;65659;49.234;-2.094;2023-07-22T14:49:51;11;10;
73241;PMS5003;65659;49.234;-2.094;2023-07-22T14:52:16;13;12;
73241;PMS5003;65659;49.234;-2.094;2023-07-22T14:54:42;6;6;
73241;PMS5003;65659;49.234;-2.094;2023-07-22T14:57:07;9;8;
73241;PMS5003;65659;49.234;-2.094;2023-07-22T14:59:33;10;10;
73241;PMS5003;65659;49.234;-2.094;2023-07-22T15:01:59;7;7;
73241;PMS5003;65659;49.234;-2.094;2023-07-22T15:04:24;9;9;
73241;PMS5003;65659;49.234;-2.094;2023-07-22T15:06:50;14;12;
73241;PMS5003;65659;49.234;-2.094;2023-07-22T15:09:15;8;8;
73241;PMS5003;65659;49.234;-2.094;2023-07-22T15:11:41;11;10;
73241;PMS5003;65659;49.234;-2.094;2023-07-22T15:14:06;12;11;
73241;PMS5003;65659;49.234;-2.094;2023-07-22T15:16:32;10;10;
73241;PMS5003;65659;49.234;-2.094;2023-07-22T15:18:57;11;11;
73241;PMS5003;65659;49.234;-2.094;2023-07-22T15:21:23;9;9;
73241;PMS5003;65659;49.234;-2.094;2023-07-22T15:23:48;8;8;
73241;PMS5003;65659;49.234;-2.094;2023-07-22T15:26:14;11;10;
73241;PMS5003;65659;49.234;-2.094;2023-07-22T15:28:40;10;10;
73241;PMS5003;65659;49.234;-2.094;2023-07-22T15:31:05;9;9;
73241;PMS5003;65659;49.234;-2.094;2023-07-22T15:33:31;9;9;
73241;PMS5003;65659;49.234;-2.094;2023-07-22T15:35:56;8;8;
73241;PMS5003;65659;49.234;-2.094;2023-07-22T15:38:22;11;10;
73241;PMS5003;65659;49.234;-2.094;2023-07-22T15:40:47;12;11;
73241;PMS5003;65659;49.234;-2.094;2023-07-22T15:43:13;14;12;
73241;PMS5003;65659;49.234;-2.094;2023-07-22T15:45:39;10;9;
73241;PMS5003;65659;49.234;-2.094;2023-07-22T15:48:04;9;8;
73241;PMS5003;65659;49.234;-2.094;2023-07-22T15:50:30;10;9;
73241;PMS5003;65659;49.234;-2.094;2023-07-22T15:52:55;13;13;
73241;PMS5003;65659;49.234;-2.094;2023-07-22T15:55:21;9;8;
73241;PMS5003;65659;49.234;-2.094;2023-07-22T15:57:46;9;9;
73241;PMS5003;65659;49.234;-2.094;2023-07-22T16:00:12;9;8;
73241;PMS5003;65659;49.234;-2.094;2023-07-22T16:02:37;13;13;
73241;PMS5003;65659;49.234;-2.094;2023-07-22T16:05:02;9;9;
73241;PMS5003;65659;49.234;-2.094;2023-07-22T16:07:28;13;11;
73241;PMS5003;65659;49.234;-2.094;2023-07-22T16:09:54;10;10;
73241;PMS5003;65659;49.234;-2.094;2023-07-22T16:12:19;12;12;
73241;PMS5003;65659;49.234;-2.094;2023-07-22T16:14:45;9;8;
73241;PMS5003;65659;49.234;-2.094;2023-07-22T16:17:10;11;10;
73241;PMS5003;65659;49.234;-2.094;2023-07-22T16:19:36;11;11;
73241;PMS5003;65659;49.234;-2.094;2023-07-22T16:22:01;9;9;
73241;PMS5003;65659;49.234;-2.094;2023-07-22T16:24:26;9;9;
73241;PMS5003;65659;49.234;-2.094;2023-07-22T16:26:52;12;11;
73241;PMS5003;65659;49.234;-2.094;2023-07-22T16:29:18;11;11;
73241;PMS5003;65659;49.234;-2.094;2023-07-22T16:31:44;12;11;